createdAt,value
2023-05-05T00:01:10.574Z,38.76
2023-05-05T00:03:37.364Z,38.80
2023-05-05T00:06:05.299Z,38.66
2023-05-05T00:08:32.089Z,38.66
2023-05-05T00:10:58.677Z,38.51
2023-05-05T00:17:12.210Z,38.73
2023-05-05T00:19:38.824Z,38.45
2023-05-05T00:22:05.365Z,38.75
2023-05-05T00:24:31.991Z,38.58
2023-05-05T00:26:58.538Z,38.52
2023-05-05T00:29:25.114Z,38.55
2023-05-05T00:31:52.302Z,38.54
2023-05-05T00:34:18.999Z,38.34
2023-05-05T00:36:45.724Z,38.54
2023-05-05T00:39:14.131Z,38.82
2023-05-05T00:41:40.901Z,38.66
2023-05-05T00:44:07.500Z,38.67
2023-05-05T00:46:34.779Z,38.67
2023-05-05T00:49:01.964Z,38.72
2023-05-05T00:51:28.997Z,38.65
2023-05-05T00:53:55.773Z,38.75
2023-05-05T00:56:22.310Z,38.64
2023-05-05T00:58:49.506Z,38.32
2023-05-05T01:01:16.509Z,38.63
2023-05-05T01:03:43.221Z,38.46
2023-05-05T01:06:28.217Z,38.66
2023-05-05T01:09:11.590Z,38.49
2023-05-05T01:11:50.211Z,38.88
2023-05-05T01:14:22.878Z,38.71
2023-05-05T01:17:04.501Z,38.58
2023-05-05T01:19:56.166Z,38.56
2023-05-05T01:22:27.252Z,38.34
2023-05-05T01:25:08.854Z,38.36
2023-05-05T01:27:35.404Z,38.46
2023-05-05T01:30:39.592Z,38.39
2023-05-05T01:33:10.281Z,38.25
2023-05-05T01:35:42.499Z,38.23
2023-05-05T01:38:16.339Z,38.50
2023-05-05T01:40:48.204Z,38.32
2023-05-05T01:43:17.979Z,38.58
2023-05-05T01:45:46.611Z,38.46
2023-05-05T01:48:16.998Z,38.24
2023-05-05T01:50:43.882Z,38.12
2023-05-05T01:53:11.629Z,38.31
2023-05-05T01:55:39.764Z,38.35
2023-05-05T01:58:07.690Z,38.51
2023-05-05T02:00:34.913Z,38.41
2023-05-05T02:03:04.426Z,38.31
2023-05-05T02:05:33.580Z,38.47
2023-05-05T02:08:00.985Z,38.40
2023-05-05T02:10:28.562Z,38.81
2023-05-05T02:12:57.065Z,38.42
2023-05-05T02:15:24.395Z,38.28
2023-05-05T02:17:54.747Z,38.33
2023-05-05T02:20:22.441Z,38.32
2023-05-05T02:22:49.175Z,38.11
2023-05-05T02:25:17.719Z,38.28
2023-05-05T02:27:46.294Z,38.20
2023-05-05T02:30:16.922Z,38.21
2023-05-05T02:32:55.263Z,38.07
2023-05-05T02:35:27.367Z,38.31
2023-05-05T02:38:01.848Z,38.39
2023-05-05T02:40:31.096Z,38.50
2023-05-05T02:42:59.864Z,38.24
2023-05-05T02:45:28.468Z,38.28
2023-05-05T02:47:55.035Z,38.63
2023-05-05T02:50:21.632Z,38.33
2023-05-05T02:52:48.367Z,38.29
2023-05-05T02:55:15.530Z,38.38
2023-05-05T02:58:00.561Z,38.21
2023-05-05T03:00:33.249Z,38.41
2023-05-05T03:03:07.672Z,38.16
2023-05-05T03:06:17.542Z,38.46
2023-05-05T03:08:56.035Z,38.27
2023-05-05T03:11:47.694Z,38.36
2023-05-05T03:14:18.531Z,38.07
2023-05-05T03:16:46.947Z,38.19
2023-05-05T03:19:18.169Z,38.24
2023-05-05T03:21:44.690Z,38.21
2023-05-05T03:24:13.633Z,38.13
2023-05-05T03:26:40.854Z,38.06
2023-05-05T03:29:07.717Z,38.10
2023-05-05T03:31:34.509Z,38.09
2023-05-05T03:34:01.054Z,38.19
2023-05-05T03:36:29.365Z,38.45
2023-05-05T03:38:56.223Z,38.23
2023-05-05T03:41:23.608Z,38.19
2023-05-05T03:43:53.775Z,38.11
2023-05-05T03:46:20.543Z,38.16
2023-05-05T03:48:47.241Z,38.21
2023-05-05T03:51:14.128Z,38.25
2023-05-05T03:53:40.766Z,38.18
2023-05-05T03:56:07.455Z,38.05
2023-05-05T03:58:34.020Z,38.10
2023-05-05T04:01:00.575Z,38.19
2023-05-05T04:03:27.307Z,38.33
2023-05-05T04:05:54.025Z,38.01
2023-05-05T04:08:20.583Z,38.19
2023-05-05T04:10:47.140Z,38.32
2023-05-05T04:13:13.720Z,38.22
2023-05-05T04:15:45.107Z,38.07
2023-05-05T04:18:11.689Z,38.33
2023-05-05T04:20:38.245Z,38.20
2023-05-05T04:23:04.776Z,38.34
2023-05-05T04:25:31.556Z,38.21
2023-05-05T04:27:58.111Z,38.00
2023-05-05T04:30:24.664Z,38.25
2023-05-05T04:32:51.170Z,38.32
2023-05-05T04:35:17.813Z,38.31
2023-05-05T04:37:44.351Z,38.35
2023-05-05T04:40:11.244Z,38.10
2023-05-05T04:42:37.751Z,38.19
2023-05-05T04:45:04.866Z,38.19
2023-05-05T04:47:31.389Z,38.30
2023-05-05T04:49:58.003Z,38.41
2023-05-05T04:52:24.511Z,38.30
2023-05-05T04:54:51.005Z,38.37
2023-05-05T04:57:17.506Z,38.16
2023-05-05T04:59:44.052Z,38.16
2023-05-05T05:02:10.712Z,38.37
2023-05-05T05:04:37.372Z,38.31
2023-05-05T05:07:03.860Z,38.20
2023-05-05T05:09:30.415Z,38.07
2023-05-05T05:12:02.830Z,38.30
2023-05-05T05:14:30.006Z,38.39
2023-05-05T05:16:56.862Z,38.13
2023-05-05T05:19:23.374Z,38.17
2023-05-05T05:21:49.857Z,38.44
2023-05-05T05:24:16.459Z,38.33
2023-05-05T05:26:43.010Z,38.39
2023-05-05T05:29:09.586Z,38.30
2023-05-05T05:31:36.897Z,38.45
2023-05-05T05:34:03.515Z,38.43
2023-05-05T05:36:29.989Z,38.16
2023-05-05T05:38:56.558Z,38.26
2023-05-05T05:41:23.060Z,38.10
2023-05-05T05:43:49.558Z,38.48
2023-05-05T05:46:16.100Z,38.43
2023-05-05T05:48:43.190Z,38.38
2023-05-05T05:51:09.758Z,38.28
2023-05-05T05:53:36.396Z,38.41
2023-05-05T05:56:03.103Z,38.43
2023-05-05T05:58:29.661Z,38.38
2023-05-05T06:00:56.232Z,38.07
2023-05-05T06:03:22.907Z,38.25
2023-05-05T06:05:50.509Z,38.48
2023-05-05T06:08:17.009Z,38.23
2023-05-05T06:10:43.529Z,38.27
2023-05-05T06:13:10.141Z,38.34
2023-05-05T06:15:36.787Z,38.22
2023-05-05T06:18:03.444Z,38.49
2023-05-05T06:20:30.058Z,38.09
2023-05-05T06:22:56.558Z,38.33
2023-05-05T06:25:23.308Z,38.30
2023-05-05T06:27:49.864Z,38.17
2023-05-05T06:30:16.524Z,38.27
2023-05-05T06:32:43.447Z,38.13
2023-05-05T06:35:10.074Z,38.36
2023-05-05T06:37:36.568Z,38.19
2023-05-05T06:40:03.181Z,38.36
2023-05-05T06:42:30.845Z,38.37
2023-05-05T06:44:57.380Z,38.39
2023-05-05T06:47:23.911Z,38.15
2023-05-05T06:49:50.452Z,38.25
2023-05-05T06:52:16.938Z,38.28
2023-05-05T06:54:43.892Z,38.37
2023-05-05T06:57:10.559Z,38.47
2023-05-05T06:59:37.097Z,38.28
2023-05-05T07:02:04.030Z,38.43
2023-05-05T07:04:30.581Z,38.32
2023-05-05T07:06:58.370Z,38.53
2023-05-05T07:09:24.895Z,38.57
2023-05-05T07:11:51.751Z,38.28
2023-05-05T07:14:18.284Z,38.35
2023-05-05T07:16:44.796Z,38.24
2023-05-05T07:19:11.360Z,38.21
2023-05-05T07:21:39.653Z,38.47
2023-05-05T07:24:06.760Z,38.54
2023-05-05T07:26:33.316Z,38.35
2023-05-05T07:28:59.908Z,38.53
2023-05-05T07:31:26.721Z,38.49
2023-05-05T07:33:53.562Z,38.50
2023-05-05T07:36:20.132Z,38.54
2023-05-05T07:38:46.703Z,38.26
2023-05-05T07:41:13.247Z,38.51
2023-05-05T07:43:44.708Z,38.28
2023-05-05T07:46:11.667Z,38.50
2023-05-05T07:48:41.630Z,38.40
2023-05-05T07:51:08.670Z,38.39
2023-05-05T07:53:35.273Z,38.54
2023-05-05T07:56:01.883Z,38.29
2023-05-05T07:58:28.431Z,38.59
2023-05-05T08:00:54.985Z,38.31
2023-05-05T08:03:24.512Z,38.32
2023-05-05T08:05:54.402Z,38.59
2023-05-05T08:08:24.528Z,38.57
2023-05-05T08:10:53.155Z,38.60
2023-05-05T08:13:20.152Z,38.30
2023-05-05T08:15:46.943Z,38.36
2023-05-05T08:18:14.875Z,38.34
2023-05-05T08:20:41.709Z,38.54
2023-05-05T08:23:08.367Z,38.39
2023-05-05T08:25:34.953Z,38.64
2023-05-05T08:28:01.697Z,38.66
2023-05-05T08:30:28.709Z,38.60
2023-05-05T08:32:55.384Z,38.45
2023-05-05T08:35:22.101Z,38.43
2023-05-05T08:37:48.656Z,38.36
2023-05-05T08:40:15.222Z,38.35
2023-05-05T08:42:42.393Z,38.35
2023-05-05T08:45:10.845Z,38.46
2023-05-05T08:47:38.518Z,38.48
2023-05-05T08:50:08.484Z,38.43
2023-05-05T08:52:44.369Z,38.35
2023-05-05T08:55:27.271Z,38.51
2023-05-05T08:58:01.040Z,38.49
2023-05-05T09:00:28.101Z,38.48
2023-05-05T09:02:58.256Z,38.38
2023-05-05T09:05:25.477Z,38.52
2023-05-05T09:07:52.319Z,38.61
2023-05-05T09:10:19.429Z,38.64
2023-05-05T09:12:46.192Z,38.44
2023-05-05T09:15:14.791Z,38.71
2023-05-05T09:17:42.342Z,38.46
2023-05-05T09:20:13.846Z,38.63
2023-05-05T09:22:47.822Z,38.72
2023-05-05T09:25:16.258Z,38.60
2023-05-05T09:27:48.151Z,38.49
2023-05-05T09:30:16.851Z,38.66
2023-05-05T09:32:45.843Z,38.56
2023-05-05T09:35:12.557Z,38.57
2023-05-05T09:37:39.121Z,38.53
2023-05-05T09:40:07.377Z,38.70
2023-05-05T09:42:35.913Z,38.49
2023-05-05T09:45:02.631Z,38.67
2023-05-05T09:47:36.433Z,38.38
2023-05-05T09:50:04.167Z,38.64
2023-05-05T09:52:31.063Z,38.52
2023-05-05T09:54:57.768Z,38.53
2023-05-05T09:57:29.105Z,38.52
2023-05-05T10:00:04.097Z,38.49
2023-05-05T10:02:33.443Z,38.50
2023-05-05T10:05:19.077Z,38.52
2023-05-05T10:07:47.904Z,38.64
2023-05-05T10:10:16.837Z,38.83
2023-05-05T10:12:45.929Z,38.80
2023-05-05T10:15:15.099Z,38.53
2023-05-05T10:20:19.208Z,38.81
2023-05-05T10:22:55.020Z,38.50
2023-05-05T10:25:30.563Z,38.77
2023-05-05T10:28:01.631Z,38.56
2023-05-05T10:30:32.673Z,38.89
2023-05-05T10:33:30.027Z,38.75
2023-05-05T10:36:01.806Z,38.51
2023-05-05T10:38:29.666Z,38.59
2023-05-05T10:40:59.151Z,38.63
2023-05-05T10:43:26.790Z,38.63
2023-05-05T10:45:54.518Z,38.59
2023-05-05T10:48:37.963Z,38.59
2023-05-05T10:51:35.369Z,38.73
2023-05-05T10:54:30.077Z,38.80
2023-05-05T10:56:58.140Z,38.63
2023-05-05T10:59:37.060Z,38.66
2023-05-05T11:02:28.709Z,38.90
2023-05-05T11:05:16.855Z,38.84
2023-05-05T11:07:45.329Z,38.90
2023-05-05T11:10:14.667Z,38.81
2023-05-05T11:13:00.074Z,39.10
2023-05-05T11:15:26.798Z,38.95
2023-05-05T11:17:57.919Z,38.97
2023-05-05T11:20:59.854Z,38.65
2023-05-05T11:23:26.680Z,38.74
2023-05-05T11:25:54.024Z,38.94
2023-05-05T11:28:24.865Z,38.99
2023-05-05T11:30:58.091Z,39.02
2023-05-05T11:33:29.153Z,38.62
2023-05-05T11:35:56.053Z,38.89
2023-05-05T11:38:31.118Z,38.66
2023-05-05T11:41:10.302Z,38.84
2023-05-05T11:43:36.890Z,38.74
2023-05-05T11:46:19.637Z,38.82
2023-05-05T11:48:51.707Z,39.02
2023-05-05T11:51:18.905Z,38.73
2023-05-05T11:53:49.957Z,39.06
2023-05-05T11:56:21.817Z,38.90
2023-05-05T11:58:49.647Z,38.92
2023-05-05T12:01:16.688Z,38.73
2023-05-05T12:03:45.433Z,39.00
2023-05-05T12:06:13.182Z,38.90
2023-05-05T12:08:40.815Z,38.86
2023-05-05T12:11:09.771Z,38.73
2023-05-05T12:13:36.843Z,38.62
2023-05-05T12:16:13.863Z,39.08
2023-05-05T12:18:41.513Z,38.71
2023-05-05T12:21:13.958Z,38.85
2023-05-05T12:23:40.553Z,38.81
2023-05-05T12:26:08.014Z,38.79
2023-05-05T12:28:48.647Z,38.70
2023-05-05T12:31:15.899Z,38.79
2023-05-05T12:33:43.020Z,39.13
2023-05-05T12:36:09.753Z,39.00
2023-05-05T12:38:36.536Z,38.92
2023-05-05T12:41:03.152Z,38.91
2023-05-05T12:43:34.364Z,38.98
2023-05-05T12:46:11.953Z,38.75
2023-05-05T12:48:40.390Z,38.98
2023-05-05T12:51:12.761Z,38.80
2023-05-05T12:53:39.293Z,38.83
2023-05-05T12:56:05.948Z,38.86
2023-05-05T12:58:51.054Z,38.96
2023-05-05T13:01:17.678Z,38.80
2023-05-05T13:03:44.807Z,38.80
2023-05-05T13:06:21.568Z,38.88
2023-05-05T13:08:48.211Z,38.69
2023-05-05T13:11:14.718Z,38.99
2023-05-05T13:13:42.146Z,39.00
2023-05-05T13:16:08.796Z,39.04
2023-05-05T13:18:48.395Z,38.85
2023-05-05T13:21:15.411Z,38.76
2023-05-05T13:23:45.774Z,39.01
2023-05-05T13:26:12.883Z,39.09
2023-05-05T13:28:40.406Z,38.75
2023-05-05T13:31:07.677Z,39.07
2023-05-05T13:33:35.118Z,38.96
2023-05-05T13:36:02.587Z,39.01
2023-05-05T13:38:29.470Z,38.88
2023-05-05T13:40:56.014Z,39.01
2023-05-05T13:43:22.564Z,39.03
2023-05-05T13:45:49.169Z,38.86
2023-05-05T13:48:15.726Z,38.62
2023-05-05T13:50:42.239Z,38.97
2023-05-05T13:53:08.840Z,38.71
2023-05-05T13:55:35.468Z,38.98
2023-05-05T13:58:02.027Z,38.97
2023-05-05T14:00:28.958Z,39.01
2023-05-05T14:02:55.595Z,38.91
2023-05-05T14:05:22.535Z,38.81
2023-05-05T14:07:49.453Z,38.96
2023-05-05T14:10:16.158Z,38.89
2023-05-05T14:12:42.657Z,39.18
2023-05-05T14:15:09.768Z,39.06
2023-05-05T14:17:36.523Z,39.12
2023-05-05T14:20:03.682Z,39.04
2023-05-05T14:22:30.236Z,39.29
2023-05-05T14:24:57.097Z,39.13
2023-05-05T14:27:23.644Z,39.08
2023-05-05T14:29:50.155Z,38.94
2023-05-05T14:32:16.766Z,39.00
2023-05-05T14:34:43.323Z,39.27
2023-05-05T14:37:09.814Z,39.06
2023-05-05T14:39:36.369Z,39.08
2023-05-05T14:42:02.895Z,39.15
2023-05-05T14:44:29.483Z,39.00
2023-05-05T14:46:56.069Z,39.36
2023-05-05T14:49:22.664Z,39.15
2023-05-05T14:51:49.189Z,39.44
2023-05-05T14:54:27.332Z,39.10
2023-05-05T14:56:55.266Z,39.26
2023-05-05T14:59:21.889Z,39.25
2023-05-05T15:01:48.594Z,39.29
2023-05-05T15:04:15.843Z,39.15
2023-05-05T15:06:42.349Z,39.19
2023-05-05T15:09:08.845Z,39.15
2023-05-05T15:11:35.328Z,39.38
2023-05-05T15:14:01.882Z,39.46
2023-05-05T15:16:28.492Z,39.27
2023-05-05T15:18:55.158Z,39.47
2023-05-05T15:21:21.677Z,39.23
2023-05-05T15:23:48.183Z,39.08
2023-05-05T15:26:14.746Z,39.47
2023-05-05T15:28:41.607Z,39.22
2023-05-05T15:31:08.212Z,39.44
2023-05-05T15:33:34.891Z,39.19
2023-05-05T15:36:01.499Z,39.19
2023-05-05T15:38:29.419Z,39.18
2023-05-05T15:40:56.183Z,39.19
2023-05-05T15:43:22.745Z,39.41
2023-05-05T15:45:49.354Z,39.43
2023-05-05T15:48:15.930Z,39.24
2023-05-05T15:50:42.542Z,39.50
2023-05-05T15:53:09.050Z,39.41
2023-05-05T15:55:36.174Z,39.30
2023-05-05T15:58:02.677Z,39.35
2023-05-05T16:00:29.508Z,39.38
2023-05-05T16:02:56.110Z,39.35
2023-05-05T16:05:23.077Z,39.30
2023-05-05T16:07:49.904Z,39.32
2023-05-05T16:10:18.691Z,39.67
2023-05-05T16:12:45.213Z,39.71
2023-05-05T16:15:11.961Z,39.31
2023-05-05T16:17:38.622Z,39.43
2023-05-05T16:20:05.702Z,39.36
2023-05-05T16:22:32.215Z,39.33
2023-05-05T16:24:58.762Z,39.25
2023-05-05T16:27:26.513Z,39.65
2023-05-05T16:29:53.363Z,39.45
2023-05-05T16:32:19.926Z,39.82
2023-05-05T16:34:46.447Z,39.50
2023-05-05T16:37:13.405Z,39.57
2023-05-05T16:39:41.247Z,39.59
2023-05-05T16:42:07.944Z,39.61
2023-05-05T16:44:34.522Z,39.49
2023-05-05T16:47:01.141Z,39.63
2023-05-05T16:49:27.685Z,39.81
2023-05-05T16:51:54.493Z,39.56
2023-05-05T16:54:21.087Z,39.45
2023-05-05T16:56:47.645Z,39.68
2023-05-05T16:59:16.488Z,39.54
2023-05-05T17:01:43.422Z,39.72
2023-05-05T17:04:10.981Z,39.54
2023-05-05T17:06:37.811Z,39.44
2023-05-05T17:09:06.179Z,39.45
2023-05-05T17:11:32.765Z,39.78
2023-05-05T17:13:59.273Z,39.56
2023-05-05T17:16:26.025Z,39.77
2023-05-05T17:18:53.978Z,39.43
2023-05-05T17:21:20.592Z,39.76
2023-05-05T17:23:47.067Z,39.63
2023-05-05T17:26:13.792Z,39.66
2023-05-05T17:28:40.457Z,39.55
2023-05-05T17:31:07.037Z,39.54
2023-05-05T17:33:33.588Z,39.69
2023-05-05T17:36:00.232Z,39.74
2023-05-05T17:38:26.738Z,39.64
2023-05-05T17:40:53.342Z,39.71
2023-05-05T17:43:19.948Z,39.53
2023-05-05T17:45:46.828Z,39.27
2023-05-05T17:48:13.406Z,39.45
2023-05-05T17:50:41.912Z,39.73
2023-05-05T17:53:10.717Z,39.65
2023-05-05T17:55:37.239Z,39.66
2023-05-05T17:58:03.811Z,39.81
2023-05-05T18:00:30.508Z,39.54
2023-05-05T18:02:57.079Z,39.45
2023-05-05T18:05:23.647Z,39.54
2023-05-05T18:07:50.161Z,39.35
2023-05-05T18:10:17.017Z,39.21
2023-05-05T18:12:43.639Z,39.46
2023-05-05T18:15:11.297Z,39.48
2023-05-05T18:17:38.067Z,39.74
2023-05-05T18:20:06.912Z,39.50
2023-05-05T18:22:34.084Z,39.51
2023-05-05T18:25:01.077Z,39.36
2023-05-05T18:27:28.581Z,39.35
2023-05-05T18:29:55.311Z,39.25
2023-05-05T18:32:21.873Z,39.33
2023-05-05T18:34:48.461Z,39.36
2023-05-05T18:37:15.125Z,39.42
2023-05-05T18:39:43.905Z,39.50
2023-05-05T18:42:12.823Z,39.37
2023-05-05T18:44:39.438Z,39.20
2023-05-05T18:47:06.829Z,39.50
2023-05-05T18:49:33.655Z,39.27
2023-05-05T18:52:00.163Z,39.21
2023-05-05T18:54:26.888Z,39.33
2023-05-05T18:56:53.443Z,39.51
2023-05-05T18:59:20.049Z,39.17
2023-05-05T19:01:46.669Z,39.26
2023-05-05T19:04:26.803Z,39.30
2023-05-05T19:06:57.166Z,39.56
2023-05-05T19:09:23.768Z,39.49
2023-05-05T19:11:50.936Z,39.24
2023-05-05T19:14:17.726Z,39.38
2023-05-05T19:16:44.640Z,39.32
2023-05-05T19:19:11.222Z,39.46
2023-05-05T19:21:38.317Z,39.52
2023-05-05T19:24:05.416Z,39.48
2023-05-05T19:26:31.932Z,39.45
2023-05-05T19:28:59.310Z,39.47
2023-05-05T19:31:27.800Z,39.30
2023-05-05T19:34:02.387Z,39.44
2023-05-05T19:36:31.647Z,39.33
2023-05-05T19:39:01.678Z,39.51
2023-05-05T19:41:29.217Z,39.47
2023-05-05T19:43:55.698Z,39.52
2023-05-05T19:46:23.988Z,39.50
2023-05-05T19:48:50.574Z,39.49
2023-05-05T19:51:17.082Z,39.62
2023-05-05T19:53:43.712Z,39.41
2023-05-05T19:56:11.575Z,39.56
2023-05-05T19:58:56.451Z,39.33
2023-05-05T20:01:23.427Z,39.33
2023-05-05T20:03:51.002Z,39.46
2023-05-05T20:06:17.650Z,39.39
2023-05-05T20:08:44.175Z,39.41
2023-05-05T20:11:10.693Z,39.48
2023-05-05T20:13:38.965Z,39.44
2023-05-05T20:16:06.318Z,39.34
2023-05-05T20:18:33.085Z,39.43
2023-05-05T20:20:59.850Z,39.64
2023-05-05T20:23:27.033Z,39.33
2023-05-05T20:25:54.818Z,39.41
2023-05-05T20:28:22.098Z,39.34
2023-05-05T20:30:48.620Z,39.46
2023-05-05T20:33:15.191Z,39.46
2023-05-05T20:35:41.706Z,39.53
2023-05-05T20:38:09.668Z,39.43
2023-05-05T20:40:36.402Z,39.28
2023-05-05T20:43:03.048Z,39.66
2023-05-05T20:45:31.725Z,39.19
2023-05-05T20:47:58.731Z,39.25
2023-05-05T20:50:25.700Z,39.52
2023-05-05T20:52:52.270Z,39.29
2023-05-05T20:55:18.895Z,39.33
2023-05-05T20:57:46.036Z,39.24
2023-05-05T21:00:13.022Z,39.51
2023-05-05T21:02:39.618Z,39.58
2023-05-05T21:05:06.747Z,39.30
2023-05-05T21:07:34.347Z,39.54
2023-05-05T21:10:04.887Z,39.47
2023-05-05T21:12:33.375Z,39.58
2023-05-05T21:14:59.924Z,39.57
2023-05-05T21:17:27.041Z,39.55
2023-05-05T21:19:54.282Z,39.43
2023-05-05T21:22:21.443Z,39.25
2023-05-05T21:24:48.229Z,39.42
2023-05-05T21:27:14.809Z,39.46
2023-05-05T21:29:41.289Z,39.34
2023-05-05T21:32:08.993Z,39.22
2023-05-05T21:34:35.952Z,39.29
2023-05-05T21:37:03.054Z,39.29
2023-05-05T21:39:30.971Z,39.44
2023-05-05T21:41:57.761Z,39.37
2023-05-05T21:44:25.722Z,39.45
2023-05-05T21:46:53.215Z,39.51
2023-05-05T21:49:19.767Z,39.39
2023-05-05T21:51:46.490Z,39.53
2023-05-05T21:54:13.065Z,39.53
2023-05-05T21:56:39.678Z,39.52
2023-05-05T21:59:07.044Z,39.45
2023-05-05T22:01:34.010Z,39.29
2023-05-05T22:04:00.690Z,39.47
2023-05-05T22:06:27.569Z,39.47
2023-05-05T22:08:54.204Z,39.25
2023-05-05T22:11:20.716Z,39.61
2023-05-05T22:13:47.189Z,39.35
2023-05-05T22:16:17.643Z,39.26
2023-05-05T22:18:44.720Z,39.40
2023-05-05T22:21:11.437Z,39.47
2023-05-05T22:23:39.074Z,39.38
2023-05-05T22:26:05.664Z,39.49
2023-05-05T22:28:32.221Z,39.45
2023-05-05T22:30:58.739Z,39.21
2023-05-05T22:33:25.402Z,39.49
2023-05-05T22:35:52.050Z,39.34
2023-05-05T22:38:18.778Z,39.48
2023-05-05T22:40:45.811Z,39.33
2023-05-05T22:43:12.321Z,39.44
2023-05-05T22:45:39.209Z,39.69
2023-05-05T22:48:05.907Z,39.48
2023-05-05T22:50:32.520Z,39.51
2023-05-05T22:52:59.080Z,39.36
2023-05-05T22:55:25.937Z,39.58
2023-05-05T22:57:52.738Z,39.37
2023-05-05T23:00:19.499Z,39.58
2023-05-05T23:02:46.146Z,39.55
2023-05-05T23:05:13.077Z,39.17
2023-05-05T23:07:39.674Z,39.28
2023-05-05T23:10:06.673Z,39.37
2023-05-05T23:12:33.222Z,39.38
2023-05-05T23:14:59.733Z,39.21
2023-05-05T23:17:26.337Z,39.26
2023-05-05T23:19:53.081Z,39.27
2023-05-05T23:22:19.597Z,39.21
2023-05-05T23:24:46.111Z,39.38
2023-05-05T23:27:12.672Z,39.31
2023-05-05T23:29:39.255Z,39.35
2023-05-05T23:32:06.380Z,39.40
2023-05-05T23:34:32.970Z,39.26
2023-05-05T23:36:59.468Z,39.47
2023-05-05T23:39:26.109Z,39.34
2023-05-05T23:41:52.617Z,39.31
2023-05-05T23:44:19.223Z,39.26
2023-05-05T23:46:45.902Z,39.49
2023-05-05T23:49:12.413Z,39.42
2023-05-05T23:51:38.945Z,39.17
2023-05-05T23:54:05.482Z,39.27
2023-05-05T23:56:32.084Z,39.39
2023-05-05T23:58:58.576Z,39.30
